Time;durP1;ratioP1;P1;durP2;ratioP2;P2;SDS_P1;SDS_P2;PMS_P1;PMS_P2;Temp;Humidity;BMP_temperature;BMP_pressure;BME280_temperature;BME280_humidity;BME280_pressure;Samples;Min_cycle;Max_cycle;Signal;HPM_P1;HPM_P2
2022/04/29 00:01:14;;;;;;;15.18;8.18;;;;;;;9.26;67.32;102789.19;4978945;28;20027;-87
2022/04/29 00:03:40;;;;;;;11.65;7.75;;;;;;;9.24;67.43;102783.03;4985454;28;20457;-87
2022/04/29 00:06:05;;;;;;;17.55;7.80;;;;;;;9.18;67.72;102788.41;4979526;28;20033;-86
2022/04/29 00:08:30;;;;;;;14.02;8.00;;;;;;;9.16;67.74;102784.91;4982405;28;20073;-87
2022/04/29 00:10:56;;;;;;;12.02;7.88;;;;;;;9.06;68.02;102770.84;4978107;28;20381;-87
2022/04/29 00:13:22;;;;;;;13.77;7.55;;;;;;;9.10;68.08;102777.00;4986575;28;20026;-87
2022/04/29 00:15:47;;;;;;;17.38;8.32;;;;;;;9.00;68.44;102772.72;4974590;28;20034;-87
2022/04/29 00:18:13;;;;;;;19.67;8.85;;;;;;;8.95;68.70;102773.66;4973922;28;20092;-87
2022/04/29 00:20:38;;;;;;;15.05;8.00;;;;;;;8.97;68.61;102771.84;4978705;28;20499;-87
2022/04/29 00:23:04;;;;;;;14.15;8.40;;;;;;;8.92;68.61;102773.72;4986108;28;20038;-87
2022/04/29 00:25:29;;;;;;;13.50;8.35;;;;;;;8.82;68.87;102758.81;4976011;28;20082;-87
2022/04/29 00:27:55;;;;;;;14.77;8.77;;;;;;;8.82;69.20;102753.50;4971871;28;20038;-87
2022/04/29 00:30:20;;;;;;;17.60;8.68;;;;;;;8.73;69.50;102757.13;4986267;28;20142;-87
2022/04/29 00:32:46;;;;;;;15.63;8.85;;;;;;;8.66;69.72;102755.47;4981231;28;20103;-87
2022/04/29 00:35:11;;;;;;;14.68;8.18;;;;;;;8.71;69.72;102764.25;4974061;28;20027;-87
2022/04/29 00:37:51;;;;;;;16.58;9.13;;;;;;;8.70;69.56;102766.94;4983782;28;20027;-87
2022/04/29 00:40:18;;;;;;;14.77;8.10;;;;;;;8.62;69.61;102755.53;4982364;28;20096;-88
2022/04/29 00:42:45;;;;;;;16.17;8.60;;;;;;;8.65;69.73;102763.41;4982545;28;20121;-88
2022/04/29 00:45:12;;;;;;;13.65;8.25;;;;;;;8.67;69.73;102772.25;4980955;28;20388;-87
2022/04/29 00:47:37;;;;;;;16.25;8.88;;;;;;;8.65;69.30;102751.06;4979766;28;20092;-88
2022/04/29 00:50:03;;;;;;;15.18;8.00;;;;;;;8.70;69.45;102767.81;4987273;28;20426;-88
2022/04/29 00:52:30;;;;;;;14.32;8.35;;;;;;;8.71;69.27;102760.72;4977909;28;20117;-88
2022/04/29 00:55:01;;;;;;;16.67;8.73;;;;;;;8.64;69.69;102761.66;4980323;28;20045;-88
2022/04/29 00:57:36;;;;;;;13.65;8.48;;;;;;;8.56;69.92;102764.41;4988598;28;20117;-88
2022/04/29 01:00:06;;;;;;;13.40;8.07;;;;;;;8.51;69.86;102752.09;4971712;28;20033;-87
2022/04/29 01:02:31;;;;;;;13.30;8.38;;;;;;;8.47;70.22;102756.56;4983910;28;20506;-88
2022/04/29 01:05:05;;;;;;;14.13;8.43;;;;;;;8.45;70.08;102761.91;4985005;28;20018;-87
2022/04/29 01:07:32;;;;;;;16.00;8.57;;;;;;;8.41;70.58;102751.34;4980908;28;20023;-87
2022/04/29 01:09:57;;;;;;;14.63;8.88;;;;;;;8.34;70.85;102750.50;4978821;28;20070;-88
2022/04/29 01:12:25;;;;;;;13.48;8.13;;;;;;;8.33;71.07;102745.22;4983424;28;20090;-87
2022/04/29 01:14:54;;;;;;;16.02;8.55;;;;;;;8.28;70.83;102747.00;4973448;28;20192;-87
2022/04/29 01:17:19;;;;;;;15.75;8.50;;;;;;;8.24;70.89;102732.94;4982922;28;20152;-87
2022/04/29 01:19:44;;;;;;;16.50;8.68;;;;;;;8.22;71.00;102747.97;4983483;28;20113;-87
2022/04/29 01:22:10;;;;;;;16.48;9.55;;;;;;;8.18;71.16;102735.63;4988955;28;20109;-87
2022/04/29 01:24:36;;;;;;;19.25;8.52;;;;;;;8.16;71.11;102738.31;4986909;28;20026;-87
2022/04/29 01:27:10;;;;;;;17.65;9.32;;;;;;;8.10;71.39;102742.78;4984449;28;20429;-87
2022/04/29 01:29:41;;;;;;;17.90;8.88;;;;;;;8.03;71.68;102741.13;4989441;28;20097;-87
2022/04/29 01:32:08;;;;;;;12.35;8.23;;;;;;;8.01;71.74;102738.47;4987657;28;20070;-87
2022/04/29 01:34:34;;;;;;;17.95;9.75;;;;;;;7.91;71.86;102720.91;4985772;28;20513;-87
2022/04/29 01:36:59;;;;;;;13.48;8.82;;;;;;;7.87;72.28;102725.34;4967604;28;20122;-87
2022/04/29 01:39:24;;;;;;;16.15;8.80;;;;;;;7.88;72.06;102720.91;4985219;28;20041;-87
2022/04/29 01:41:49;;;;;;;19.23;9.07;;;;;;;7.82;72.36;102716.56;4978159;28;20038;-87
2022/04/29 01:44:15;;;;;;;15.57;8.55;;;;;;;7.76;72.57;102702.47;4982725;28;20117;-86
2022/04/29 01:46:40;;;;;;;12.85;8.40;;;;;;;7.76;72.60;102716.59;4965283;28;20022;-86
2022/04/29 01:49:05;;;;;;;20.52;9.25;;;;;;;7.73;72.77;102719.28;4989662;28;20373;-87
2022/04/29 01:51:30;;;;;;;15.02;8.65;;;;;;;7.72;72.56;102710.44;4986380;28;20038;-88
2022/04/29 01:53:56;;;;;;;17.52;9.23;;;;;;;7.64;73.27;102711.41;4953655;28;20074;-87
2022/04/29 01:56:32;;;;;;;17.45;9.55;;;;;;;7.70;72.69;102706.06;4985602;28;20026;-86
2022/04/29 01:58:58;;;;;;;13.00;8.65;;;;;;;7.72;72.69;102712.22;4985712;28;20610;-87
2022/04/29 02:01:23;;;;;;;16.90;8.77;;;;;;;7.65;72.42;102699.91;4978063;28;20137;-87
2022/04/29 02:03:48;;;;;;;15.95;8.90;;;;;;;7.63;73.13;102709.66;4978148;28;20370;-87
2022/04/29 02:06:14;;;;;;;13.85;9.20;;;;;;;7.62;72.99;102710.56;4975946;28;20086;-87
2022/04/29 02:08:39;;;;;;;20.25;9.35;;;;;;;7.53;73.05;102700.91;4964011;28;20388;-87
2022/04/29 02:11:05;;;;;;;15.88;9.38;;;;;;;7.52;73.29;102701.78;4968463;28;20141;-88
2022/04/29 02:13:31;;;;;;;15.95;8.65;;;;;;;7.52;73.22;102706.22;4984589;28;20026;-87
2022/04/29 02:15:57;;;;;;;15.45;9.27;;;;;;;7.47;73.52;102706.25;4981070;28;20018;-87
2022/04/29 02:18:22;;;;;;;16.48;9.80;;;;;;;7.44;73.90;102700.97;4979971;28;20023;-87
2022/04/29 02:20:49;;;;;;;22.67;9.93;;;;;;;7.43;73.72;102697.44;4972979;28;20263;-87
2022/04/29 02:23:14;;;;;;;17.38;9.40;;;;;;;7.37;74.16;102691.34;4982566;28;20026;-87
2022/04/29 02:25:40;;;;;;;16.80;8.93;;;;;;;7.36;73.88;102689.59;4978560;28;20023;-87
2022/04/29 02:28:05;;;;;;;13.60;8.90;;;;;;;7.35;73.86;102693.09;4988016;28;20061;-87
2022/04/29 02:30:31;;;;;;;16.58;8.98;;;;;;;7.33;73.86;102695.78;4961676;28;20041;-88
2022/04/29 02:32:56;;;;;;;15.85;8.73;;;;;;;7.32;74.17;102693.16;4979450;28;20465;-88
2022/04/29 02:35:21;;;;;;;15.45;8.95;;;;;;;7.28;74.07;102702.88;4983770;28;20036;-87
2022/04/29 02:37:46;;;;;;;15.93;9.30;;;;;;;7.30;74.02;102701.09;4989625;28;20380;-87
2022/04/29 02:40:12;;;;;;;16.73;9.07;;;;;;;7.28;74.21;102702.88;4981136;28;20038;-87
2022/04/29 02:42:37;;;;;;;17.42;9.30;;;;;;;7.22;74.21;102697.63;4955914;28;20042;-88
2022/04/29 02:45:03;;;;;;;13.50;9.52;;;;;;;7.23;74.65;102694.06;4977033;28;20037;-87
2022/04/29 02:47:29;;;;;;;15.63;9.20;;;;;;;7.19;74.74;102700.28;4986128;28;20029;-88
2022/04/29 02:49:54;;;;;;;13.77;9.80;;;;;;;7.13;74.78;102703.84;4985872;28;20093;-87
2022/04/29 02:52:19;;;;;;;17.08;9.65;;;;;;;7.12;74.72;102694.16;4983466;28;20041;-88
2022/04/29 02:54:44;;;;;;;13.90;9.90;;;;;;;7.16;74.63;102693.25;4976717;28;20111;-87
2022/04/29 02:57:10;;;;;;;18.65;10.45;;;;;;;6.98;74.89;102681.03;4986404;28;20034;-87
2022/04/29 02:59:35;;;;;;;15.30;8.93;;;;;;;7.10;74.63;102695.94;4983915;28;20058;-88
2022/04/29 03:02:00;;;;;;;16.65;8.88;;;;;;;7.11;74.82;102699.50;4976811;28;20404;-87
2022/04/29 03:04:26;;;;;;;20.02;9.57;;;;;;;6.99;75.01;102690.72;4972755;28;20061;-87
2022/04/29 03:06:51;;;;;;;18.33;10.00;;;;;;;7.02;74.94;102692.44;4974029;28;20116;-87
2022/04/29 03:09:17;;;;;;;19.52;9.98;;;;;;;6.96;75.21;102693.38;4974928;28;20033;-88
2022/04/29 03:11:42;;;;;;;23.60;10.07;;;;;;;6.91;75.44;102691.66;4976953;28;20442;-87
2022/04/29 03:14:08;;;;;;;17.63;10.07;;;;;;;6.86;75.68;102686.41;4975760;28;20030;-88
2022/04/29 03:16:33;;;;;;;16.88;9.95;;;;;;;6.95;75.38;102693.41;4975370;28;20053;-87
2022/04/29 03:18:59;;;;;;;19.15;9.93;;;;;;;6.95;75.16;102688.97;4978336;28;20042;-88
2022/04/29 03:21:24;;;;;;;18.02;10.73;;;;;;;6.97;75.39;102681.03;4961099;28;20045;-88
2022/04/29 03:23:50;;;;;;;17.60;9.52;;;;;;;6.95;75.41;102678.41;4974238;28;20462;-88
2022/04/29 03:26:16;;;;;;;16.90;9.70;;;;;;;6.98;74.81;102673.09;4977467;28;20073;-87
2022/04/29 03:28:41;;;;;;;15.98;10.43;;;;;;;6.96;75.22;102666.03;4976705;28;20049;-87
2022/04/29 03:31:07;;;;;;;14.48;9.57;;;;;;;6.90;75.21;102661.66;4972874;28;20037;-87
2022/04/29 03:33:32;;;;;;;17.45;10.00;;;;;;;6.91;75.44;102663.41;4979931;28;20022;-87
2022/04/29 03:35:58;;;;;;;19.55;10.35;;;;;;;6.89;75.60;102661.66;4981084;28;20118;-88
2022/04/29 03:38:24;;;;;;;19.10;9.90;;;;;;;6.87;75.54;102661.69;4987198;28;20061;-88
2022/04/29 03:40:50;;;;;;;15.65;9.50;;;;;;;6.88;75.30;102665.19;4986032;28;20038;-88
2022/04/29 03:43:15;;;;;;;17.77;9.60;;;;;;;6.86;75.51;102682.88;4980473;28;20019;-88
2022/04/29 03:45:41;;;;;;;14.82;9.85;;;;;;;6.87;75.10;102682.84;4987514;28;20026;-87
2022/04/29 03:48:06;;;;;;;15.50;10.02;;;;;;;6.85;75.54;102686.38;4987874;28;20097;-88
2022/04/29 03:50:32;;;;;;;16.90;10.30;;;;;;;6.83;75.69;102689.06;4970785;28;20033;-88
2022/04/29 03:52:59;;;;;;;18.00;10.23;;;;;;;6.82;75.63;102687.31;4973756;28;20098;-88
2022/04/29 03:55:27;;;;;;;16.08;10.07;;;;;;;6.86;75.49;102683.75;4980163;28;20038;-88
2022/04/29 03:57:55;;;;;;;16.05;9.25;;;;;;;6.85;75.56;102681.97;4986803;28;20077;-88
2022/04/29 04:00:23;;;;;;;21.15;10.63;;;;;;;6.80;75.95;102682.91;4982950;28;20026;-89
2022/04/29 04:02:49;;;;;;;18.42;10.13;;;;;;;6.73;76.06;102666.19;4977176;28;20053;-88
2022/04/29 04:05:15;;;;;;;15.00;9.93;;;;;;;6.69;76.26;102664.44;4988730;28;20551;-87
2022/04/29 04:07:40;;;;;;;16.30;10.15;;;;;;;6.74;75.58;102668.81;4981148;28;20118;-88
2022/04/29 04:10:07;;;;;;;15.00;9.60;;;;;;;6.75;76.01;102669.69;4982200;28;20501;-88
2022/04/29 04:12:46;;;;;;;18.63;9.98;;;;;;;6.71;76.12;102676.78;4980156;28;20277;-88
2022/04/29 04:15:13;;;;;;;17.60;10.07;;;;;;;6.72;76.06;102688.22;4970629;28;20075;-88
2022/04/29 04:17:39;;;;;;;17.25;10.10;;;;;;;6.74;76.00;102686.47;4975946;28;20018;-88
2022/04/29 04:20:07;;;;;;;20.10;10.50;;;;;;;6.68;76.07;102679.41;4987021;28;20018;-88
2022/04/29 04:22:35;;;;;;;21.55;10.77;;;;;;;6.71;76.17;102673.25;4986276;28;20037;-88
2022/04/29 04:25:02;;;;;;;19.40;10.90;;;;;;;6.64;76.14;102669.75;4987018;28;20574;-87
2022/04/29 04:27:28;;;;;;;16.92;10.43;;;;;;;6.70;75.92;102671.50;4969642;28;20138;-88
2022/04/29 04:29:53;;;;;;;18.35;10.65;;;;;;;6.64;76.32;102660.94;4990366;28;20567;-88
2022/04/29 04:32:18;;;;;;;14.45;10.60;;;;;;;6.68;75.74;102674.13;4986994;28;20085;-87
2022/04/29 04:34:49;;;;;;;19.65;10.32;;;;;;;6.70;76.01;102660.91;4983078;28;20030;-87
2022/04/29 04:37:15;;;;;;;20.60;11.18;;;;;;;6.66;76.14;102661.81;4987437;28;20030;-88
2022/04/29 04:39:40;;;;;;;20.10;10.20;;;;;;;6.70;75.90;102661.78;4978217;28;20037;-88
2022/04/29 04:42:06;;;;;;;17.25;10.85;;;;;;;6.63;76.24;102656.53;4984562;28;20035;-89
2022/04/29 04:44:31;;;;;;;18.95;10.48;;;;;;;6.65;76.04;102665.34;4990384;28;20053;-90
2022/04/29 04:46:56;;;;;;;18.13;10.13;;;;;;;6.67;75.98;102661.78;4990426;28;20463;-87
2022/04/29 04:49:21;;;;;;;20.20;10.88;;;;;;;6.67;76.06;102660.91;4978694;28;20181;-91
2022/04/29 04:51:47;;;;;;;21.25;11.20;;;;;;;6.59;76.07;102647.72;4975658;28;20763;-89
2022/04/29 04:54:12;;;;;;;21.50;11.65;;;;;;;6.65;75.56;102657.41;4977622;28;20105;-89
2022/04/29 04:56:38;;;;;;;19.80;11.05;;;;;;;6.64;76.22;102666.22;4983963;28;20399;-88
2022/04/29 04:59:04;;;;;;;20.15;11.13;;;;;;;6.64;76.24;102655.63;4977558;28;20039;-88
2022/04/29 05:01:29;;;;;;;19.83;11.63;;;;;;;6.66;76.18;102662.69;4982937;28;20061;-88
2022/04/29 05:03:54;;;;;;;17.85;10.95;;;;;;;6.68;75.97;102658.25;4980586;28;20663;-89
2022/04/29 05:06:20;;;;;;;20.92;10.93;;;;;;;6.68;75.78;102657.38;4980427;28;20022;-89
2022/04/29 05:08:45;;;;;;;21.33;12.30;;;;;;;6.64;76.04;102660.94;4990341;28;20076;-89
2022/04/29 05:11:11;;;;;;;22.65;11.40;;;;;;;6.62;76.40;102654.78;4986430;28;20056;-89
2022/04/29 05:13:36;;;;;;;17.70;10.80;;;;;;;6.69;75.95;102659.16;4976757;28;20023;-88
2022/04/29 05:16:01;;;;;;;19.00;10.73;;;;;;;6.67;75.97;102655.63;4973609;28;20062;-89
2022/04/29 05:18:26;;;;;;;21.00;10.85;;;;;;;6.63;76.29;102653.88;4990984;28;20521;-88
2022/04/29 05:20:52;;;;;;;20.20;11.27;;;;;;;6.66;75.92;102656.53;4996843;28;20026;-88
2022/04/29 05:23:17;;;;;;;19.20;11.75;;;;;;;6.65;76.25;102660.06;4948837;28;20038;-88
2022/04/29 05:25:42;;;;;;;18.35;10.80;;;;;;;6.66;75.96;102660.03;4990754;28;20022;-88
2022/04/29 05:28:08;;;;;;;19.33;10.90;;;;;;;6.62;76.02;102639.78;4990347;28;20451;-88
2022/04/29 05:30:34;;;;;;;18.08;10.55;;;;;;;6.67;76.00;102660.91;4987880;28;20038;-87
2022/04/29 05:33:01;;;;;;;17.83;11.43;;;;;;;6.69;75.75;102661.81;4977728;28;20181;-87
2022/04/29 05:35:26;;;;;;;18.30;11.00;;;;;;;6.73;75.75;102658.25;4983463;28;20113;-88
2022/04/29 05:37:52;;;;;;;19.38;10.88;;;;;;;6.66;75.89;102656.53;4989651;28;20457;-89
2022/04/29 05:43:02;;;;;;;25.42;11.43;;;;;;;6.63;75.99;102656.53;4973982;28;20637;-91
2022/04/29 05:45:28;;;;;;;22.35;11.95;;;;;;;6.68;76.01;102665.31;4983510;28;20058;-89
2022/04/29 05:47:53;;;;;;;19.95;11.02;;;;;;;6.72;75.88;102673.22;4977617;28;20552;-89
2022/04/29 05:50:18;;;;;;;16.95;11.68;;;;;;;6.72;75.85;102667.06;4979945;28;20038;-89
2022/04/29 05:52:44;;;;;;;22.13;11.80;;;;;;;6.80;75.84;102675.84;4966595;28;20046;-89
2022/04/29 05:55:09;;;;;;;17.02;11.77;;;;;;;6.85;75.62;102671.38;4988956;28;20341;-90
2022/04/29 05:57:34;;;;;;;19.60;10.80;;;;;;;6.95;75.26;102674.88;4993002;28;20113;-89
2022/04/29 06:00:00;;;;;;;21.60;11.38;;;;;;;6.91;74.93;102665.19;4985293;28;20042;-90
2022/04/29 06:02:26;;;;;;;18.42;10.75;;;;;;;6.91;74.95;102674.00;4980256;28;20030;-89
2022/04/29 06:04:51;;;;;;;20.45;12.45;;;;;;;6.99;74.79;102682.78;4979742;28;20033;-90
2022/04/29 06:07:17;;;;;;;21.02;11.57;;;;;;;7.13;74.49;102684.44;4982333;28;20023;-90
2022/04/29 06:09:42;;;;;;;19.08;11.90;;;;;;;7.19;74.55;102673.78;4982436;28;20030;-91
2022/04/29 06:12:08;;;;;;;18.58;11.75;;;;;;;7.21;73.96;102669.38;4989645;28;20057;-92
2022/04/29 06:14:36;;;;;;;20.00;11.68;;;;;;;7.25;73.76;102676.41;4993568;28;20034;-92
2022/04/29 06:17:02;;;;;;;20.17;12.65;;;;;;;7.27;73.61;102685.22;4990086;28;20165;-93
2022/04/29 06:19:27;;;;;;;24.27;12.60;;;;;;;7.33;73.58;102687.84;4990120;28;20117;-92
2022/04/29 06:21:53;;;;;;;18.50;11.10;;;;;;;7.39;73.37;102687.75;4977982;28;20287;-92
2022/04/29 06:24:18;;;;;;;19.90;11.85;;;;;;;7.42;73.03;102693.03;4982742;28;20026;-91
2022/04/29 06:26:43;;;;;;;21.05;12.00;;;;;;;7.42;73.08;102689.53;4988462;28;20050;-91
2022/04/29 06:29:09;;;;;;;21.70;11.13;;;;;;;7.52;72.61;102690.31;4989907;28;20022;-90
2022/04/29 06:31:34;;;;;;;23.15;12.05;;;;;;;7.44;72.50;102685.97;4982225;28;20034;-91
2022/04/29 06:34:00;;;;;;;22.52;12.52;;;;;;;7.49;72.74;102693.88;4971627;28;20054;-91
2022/04/29 06:36:25;;;;;;;18.92;11.73;;;;;;;7.51;72.80;102697.38;4979387;28;20045;-90
2022/04/29 06:38:51;;;;;;;24.23;11.98;;;;;;;7.55;72.66;102699.13;4987520;28;20093;-91
2022/04/29 06:41:16;;;;;;;17.73;11.63;;;;;;;7.60;72.48;102702.59;4985738;28;20479;-90
2022/04/29 06:43:41;;;;;;;19.80;11.73;;;;;;;7.69;72.56;102706.94;4970829;28;20539;-90
2022/04/29 06:46:07;;;;;;;25.95;12.40;;;;;;;7.79;72.08;102700.69;4986764;28;20018;-89
2022/04/29 06:48:32;;;;;;;20.30;12.73;;;;;;;7.96;71.60;102706.69;4992754;28;20046;-90
2022/04/29 06:50:58;;;;;;;22.40;12.10;;;;;;;7.96;70.81;102712.00;4985331;28;20030;-89
2022/04/29 06:53:23;;;;;;;24.08;12.65;;;;;;;7.98;70.85;102691.66;4976237;28;20039;-89
2022/04/29 06:55:49;;;;;;;23.08;12.63;;;;;;;8.17;70.58;102702.06;4988739;28;20037;-89
2022/04/29 06:58:14;;;;;;;21.58;12.50;;;;;;;8.23;70.12;102694.91;4971469;28;20066;-89
2022/04/29 07:00:40;;;;;;;21.42;12.07;;;;;;;8.30;70.00;102705.44;4974097;28;20062;-88
2022/04/29 07:03:06;;;;;;;18.55;11.68;;;;;;;8.31;69.75;102713.38;4969628;28;20041;-88
2022/04/29 07:05:32;;;;;;;22.75;12.95;;;;;;;8.40;69.49;102702.72;4987374;28;20018;-89
2022/04/29 07:07:58;;;;;;;22.45;12.48;;;;;;;8.46;69.21;102701.75;4988069;28;20105;-84
2022/04/29 07:10:23;;;;;;;20.15;12.43;;;;;;;8.58;69.69;102703.38;4979166;28;20400;-85
2022/04/29 07:12:49;;;;;;;21.98;11.77;;;;;;;8.72;68.73;102704.06;4976527;28;20055;-85
2022/04/29 07:15:16;;;;;;;20.70;11.57;;;;;;;8.94;68.65;102697.53;4986673;28;20042;-85
2022/04/29 07:17:42;;;;;;;22.42;12.23;;;;;;;9.09;67.83;102706.19;4985727;28;20022;-87
2022/04/29 07:20:09;;;;;;;24.42;12.30;;;;;;;9.11;67.49;102709.69;4991423;28;20113;-88
2022/04/29 07:22:39;;;;;;;19.65;11.32;;;;;;;9.16;67.51;102702.56;4987146;28;20030;-88
2022/04/29 07:25:06;;;;;;;23.35;12.65;;;;;;;9.14;67.08;102705.22;4990852;28;20029;-88
2022/04/29 07:27:32;;;;;;;22.40;13.20;;;;;;;9.28;67.07;102702.38;4959959;28;20401;-87
2022/04/29 07:29:58;;;;;;;22.65;13.30;;;;;;;9.66;66.26;102706.16;4970326;28;20018;-87
2022/04/29 07:32:25;;;;;;;24.27;12.40;;;;;;;9.94;64.67;102709.19;4978691;28;20046;-86
2022/04/29 07:43:03;;;;;;;21.98;12.52;;;;;;;11.02;61.50;102703.44;4968914;28;20045;-87
2022/04/29 07:45:28;;;;;;;21.05;12.23;;;;;;;11.37;60.55;102694.59;4985672;28;20023;-86
2022/04/29 07:47:55;;;;;;;18.77;11.43;;;;;;;11.45;59.49;102681.97;4978967;28;20381;-85
2022/04/29 07:50:21;;;;;;;21.02;12.93;;;;;;;11.47;59.38;102692.56;4982998;28;20099;-85
2022/04/29 07:52:46;;;;;;;22.17;12.50;;;;;;;11.69;59.27;102699.09;4987350;28;20464;-87
2022/04/29 07:55:11;;;;;;;20.75;12.52;;;;;;;11.65;58.70;102684.09;4982746;28;20030;-86
2022/04/29 07:57:37;;;;;;;22.52;12.50;;;;;;;11.68;59.01;102697.34;4998813;28;20423;-85
2022/04/29 08:00:04;;;;;;;23.17;12.95;;;;;;;11.72;58.96;102701.69;4979675;28;20041;-86
2022/04/29 08:02:30;;;;;;;19.50;12.25;;;;;;;11.70;58.93;102702.63;4980877;28;20023;-85
2022/04/29 08:04:55;;;;;;;24.58;12.60;;;;;;;11.51;58.72;102704.03;4984709;28;20157;-85
2022/04/29 08:07:20;;;;;;;23.88;12.57;;;;;;;11.47;59.53;102705.91;4967958;28;20108;-85
2022/04/29 08:09:46;;;;;;;19.20;11.30;;;;;;;11.42;59.62;102707.81;4985705;28;20026;-85
2022/04/29 08:12:11;;;;;;;20.60;12.07;;;;;;;11.38;59.88;102711.47;4976427;28;20034;-86
2022/04/29 08:14:37;;;;;;;23.92;12.80;;;;;;;11.32;59.59;102706.28;4978532;28;20034;-86
2022/04/29 08:17:02;;;;;;;22.42;13.23;;;;;;;11.31;59.93;102716.06;4978311;28;20034;-87
2022/04/29 08:19:27;;;;;;;18.73;11.98;;;;;;;11.35;59.75;102704.41;4979552;28;20106;-86
2022/04/29 08:21:53;;;;;;;23.45;13.48;;;;;;;11.62;59.64;102707.28;4988424;28;20088;-86
2022/04/29 08:24:18;;;;;;;21.17;12.82;;;;;;;11.81;58.82;102705.91;4990879;28;20034;-86
2022/04/29 08:26:43;;;;;;;25.85;13.82;;;;;;;11.85;58.39;102702.28;4972070;28;20133;-84
2022/04/29 08:29:10;;;;;;;22.77;13.80;;;;;;;11.85;59.52;102706.75;4990020;28;20038;-85
2022/04/29 08:31:36;;;;;;;20.67;13.15;;;;;;;11.85;59.28;102723.63;4985259;28;20091;-87
2022/04/29 08:34:01;;;;;;;23.75;13.05;;;;;;;11.69;59.66;102717.78;4981701;28;20031;-89
2022/04/29 08:36:27;;;;;;;20.67;13.32;;;;;;;11.70;59.75;102722.22;4984907;28;20468;-88
2022/04/29 08:38:52;;;;;;;22.17;14.05;;;;;;;11.70;59.50;102723.97;4967143;28;20117;-89
2022/04/29 08:41:19;;;;;;;23.25;14.00;;;;;;;12.00;59.29;102725.03;4980237;28;20026;-89
2022/04/29 08:43:45;;;;;;;23.02;13.43;;;;;;;12.33;58.37;102722.31;4991184;28;20029;-89
2022/04/29 08:46:11;;;;;;;21.65;13.85;;;;;;;12.56;57.64;102724.34;4991740;28;20026;-89
2022/04/29 08:48:36;;;;;;;22.27;12.93;;;;;;;12.77;57.39;102721.03;4986303;28;20495;-87
2022/04/29 08:51:02;;;;;;;24.48;13.55;;;;;;;13.01;55.91;102723.88;4982885;28;20034;-87
2022/04/29 08:53:28;;;;;;;21.23;13.07;;;;;;;13.04;55.57;102715.75;4987795;28;20424;-88
2022/04/29 08:58:38;;;;;;;25.75;14.38;;;;;;;13.45;54.33;102706.44;4989021;28;20081;-88
2022/04/29 09:01:16;;;;;;;26.02;13.93;;;;;;;13.68;54.43;102714.56;4980932;28;20049;-88
2022/04/29 09:03:43;;;;;;;20.23;13.55;;;;;;;13.93;53.87;102711.91;4969673;28;20079;-88
2022/04/29 09:06:08;;;;;;;23.90;13.38;;;;;;;14.19;52.94;102708.28;4973550;28;20019;-88
2022/04/29 09:08:46;;;;;;;20.63;14.25;;;;;;;14.17;53.10;102712.84;4990730;28;20048;-88
2022/04/29 09:11:20;;;;;;;22.73;12.95;;;;;;;14.19;52.27;102699.38;4977124;28;20038;-88
2022/04/29 09:13:45;;;;;;;20.88;12.73;;;;;;;14.03;52.71;102703.56;4974864;28;20062;-87
2022/04/29 09:16:12;;;;;;;22.48;13.45;;;;;;;13.82;53.21;102706.06;4985804;28;20101;-85
2022/04/29 09:18:46;;;;;;;24.17;13.48;;;;;;;13.99;53.28;102699.22;4991376;28;20034;-87
2022/04/29 09:21:17;;;;;;;22.88;13.85;;;;;;;14.33;52.31;102706.91;4966726;28;20047;-88
2022/04/29 09:23:43;;;;;;;25.23;14.40;;;;;;;14.73;51.11;102698.28;4979341;28;20101;-87
2022/04/29 09:26:29;;;;;;;22.30;12.80;;;;;;;15.15;51.32;102695.69;4988613;28;20030;-88
2022/04/29 09:29:08;;;;;;;20.45;13.18;;;;;;;15.15;49.82;102703.75;4976571;28;20050;-87
2022/04/29 09:32:05;;;;;;;19.30;13.18;;;;;;;15.18;50.67;102719.72;4988605;28;20072;-86
2022/04/29 09:34:48;;;;;;;22.88;13.88;;;;;;;15.25;50.70;102719.47;4981606;28;20034;-86
2022/04/29 09:37:15;;;;;;;20.33;13.30;;;;;;;15.43;50.09;102697.25;4988071;28;20034;-87
2022/04/29 09:39:51;;;;;;;19.05;13.10;;;;;;;15.43;49.57;102697.25;4986713;28;20085;-87
2022/04/29 09:42:16;;;;;;;20.80;13.35;;;;;;;15.38;49.65;102701.91;4991583;28;20098;-88
2022/04/29 09:44:42;;;;;;;16.65;13.10;;;;;;;15.08;49.66;102704.91;4990631;28;20110;-88
2022/04/29 09:47:21;;;;;;;24.40;13.68;;;;;;;14.92;50.79;102711.81;4990477;28;20054;-87
2022/04/29 09:49:56;;;;;;;24.90;14.02;;;;;;;14.76;51.75;102706.22;4972045;28;20026;-87
2022/04/29 09:52:31;;;;;;;25.02;14.52;;;;;;;14.44;51.76;102708.25;4979773;28;20503;-87
2022/04/29 09:55:13;;;;;;;21.45;14.32;;;;;;;14.15;52.88;102705.78;4990041;28;20030;-87
2022/04/29 09:57:52;;;;;;;23.55;13.70;;;;;;;13.97;53.62;102703.78;4965878;28;20034;-88
2022/04/29 10:00:18;;;;;;;22.95;13.63;;;;;;;13.88;54.06;102700.50;4980673;28;20030;-87
2022/04/29 10:02:46;;;;;;;20.25;14.93;;;;;;;13.67;54.31;102707.47;4982080;28;20080;-87
2022/04/29 10:05:12;;;;;;;27.20;14.80;;;;;;;13.51;55.12;102706.25;4984556;28;20026;-87
2022/04/29 10:07:39;;;;;;;23.02;14.65;;;;;;;13.45;54.94;102706.44;4989348;28;20030;-86
2022/04/29 10:10:05;;;;;;;21.95;14.38;;;;;;;13.35;55.78;102696.97;4981435;28;20048;-86
2022/04/29 10:12:32;;;;;;;19.90;14.40;;;;;;;13.26;56.11;102703.50;4989172;28;20038;-87
2022/04/29 10:15:00;;;;;;;24.20;14.32;;;;;;;13.11;56.35;102699.47;4988833;28;20066;-87
2022/04/29 10:23:08;;;;;;;22.75;15.25;;;;;;;13.06;56.77;102700.56;4975109;28;20041;-88
2022/04/29 10:25:35;;;;;;;21.77;14.90;;;;;;;13.02;56.89;102701.56;4987658;28;20033;-88
2022/04/29 10:28:01;;;;;;;26.15;14.75;;;;;;;12.92;57.23;102690.31;4987870;28;20128;-88
2022/04/29 10:30:27;;;;;;;24.65;13.85;;;;;;;12.91;57.22;102696.53;4977225;28;20298;-87
2022/04/29 10:33:12;;;;;;;24.58;14.90;;;;;;;13.02;57.09;102686.41;4982669;28;20022;-88
2022/04/29 10:35:42;;;;;;;23.92;14.48;;;;;;;13.04;57.42;102686.34;4939356;28;20026;-88
2022/04/29 10:38:39;;;;;;;22.25;14.32;;;;;;;13.17;56.97;102677.03;4986798;28;20026;-87
2022/04/29 10:41:08;;;;;;;22.10;14.77;;;;;;;13.08;56.84;102679.97;4984676;28;20026;-87
2022/04/29 10:43:38;;;;;;;25.02;13.60;;;;;;;13.01;57.28;102675.78;4984231;28;20042;-88
2022/04/29 10:46:03;;;;;;;25.50;14.45;;;;;;;13.10;57.55;102687.03;4987164;28;20515;-87
2022/04/29 10:48:30;;;;;;;24.00;14.75;;;;;;;13.00;57.56;102677.56;4986065;28;20038;-86
2022/04/29 10:50:56;;;;;;;23.45;14.00;;;;;;;12.97;57.65;102675.00;4985821;28;20066;-85
2022/04/29 10:53:23;;;;;;;27.02;13.52;;;;;;;13.09;58.05;102677.28;4988746;28;20058;-87
2022/04/29 10:55:48;;;;;;;20.80;14.25;;;;;;;13.13;57.95;102662.88;4989403;28;20042;-87
2022/04/29 10:58:21;;;;;;;22.45;13.43;;;;;;;13.17;57.62;102661.84;4981914;28;20023;-90
2022/04/29 11:01:16;;;;;;;26.10;13.50;;;;;;;13.11;57.42;102655.81;4974188;28;20031;-89
2022/04/29 11:03:44;;;;;;;24.55;14.45;;;;;;;13.20;57.61;102652.84;4980140;28;20030;-88
2022/04/29 11:06:13;;;;;;;25.02;15.02;;;;;;;13.07;57.50;102648.84;4988685;28;20022;-87
2022/04/29 11:08:40;;;;;;;21.95;13.88;;;;;;;13.13;57.43;102652.19;4987170;28;20495;-87
2022/04/29 11:11:05;;;;;;;23.60;14.45;;;;;;;13.13;57.82;102646.84;4985148;28;20038;-87
2022/04/29 11:13:34;;;;;;;24.98;14.60;;;;;;;13.06;57.77;102655.97;4976838;28;20538;-88
2022/04/29 11:16:08;;;;;;;21.67;13.52;;;;;;;13.07;58.01;102659.53;4986342;28;20145;-87
2022/04/29 11:18:34;;;;;;;26.98;14.20;;;;;;;12.99;57.89;102661.56;4980533;28;20096;-86
2022/04/29 11:24:40;;;;;;;22.60;13.18;;;;;;;13.02;58.10;102665.03;4975305;28;20030;-87
2022/04/29 11:26:42;;;;;;;21.85;13.25;;;;;;;13.30;57.99;102666.84;4982060;28;20510;-87
2022/04/29 11:29:10;;;;;;;25.42;14.13;;;;;;;13.34;57.16;102660.47;4954479;28;20026;-87
2022/04/29 11:31:36;;;;;;;19.45;12.75;;;;;;;13.38;57.51;102657.63;4980295;28;20097;-85
2022/04/29 11:34:20;;;;;;;23.38;13.93;;;;;;;13.43;57.01;102658.34;4971440;28;20388;-86
2022/04/29 11:36:45;;;;;;;24.88;12.73;;;;;;;13.47;56.70;102652.91;4984308;28;20464;-86
2022/04/29 11:39:18;;;;;;;23.38;12.68;;;;;;;13.58;57.08;102648.91;4986819;28;20085;-88